Time,TemperatureF,DewpointF,PressureIn,WindDirection,WindDirectionDegrees,WindSpeedMPH,WindSpeedGustMPH,Humidity,HourlyPrecipIn,Conditions,Clouds,dailyrainin,SolarRadiationWatts/m^2,SoftwareType,DateUTC
2013-03-22 00:04:00,45.7,40.0,29.96,SW,227,0.0,1.0,81,0.00,,,0.00,0,weatherlink.com 1.10,2013-03-22 04:04:00,
2013-03-22 00:19:00,45.5,40.0,29.96,SW,229,0.0,1.0,82,0.00,,,0.00,0,weatherlink.com 1.10,2013-03-22 04:19:00,
2013-03-22 00:34:00,45.5,41.0,29.96,SW,229,0.0,0.0,85,0.00,,,0.00,0,weatherlink.com 1.10,2013-03-22 04:34:00,
2013-03-22 00:50:00,44.1,40.0,29.96,SW,229,0.0,0.0,85,0.00,,,0.00,0,weatherlink.com 1.10,2013-03-22 04:50:00,
2013-03-22 01:05:00,44.2,41.0,29.96,SW,229,0.0,1.0,87,0.00,,,0.00,0,weatherlink.com 1.10,2013-03-22 05:05:00,
2013-03-22 01:19:00,45.3,41.0,29.96,SW,229,0.0,0.0,85,0.00,,,0.00,0,weatherlink.com 1.10,2013-03-22 05:19:00,
2013-03-22 01:35:00,43.3,39.0,29.96,SW,229,0.0,0.0,85,0.00,,,0.00,0,weatherlink.com 1.10,2013-03-22 05:35:00,
2013-03-22 01:50:00,42.7,40.0,29.96,SW,229,0.0,0.0,89,0.00,,,0.00,0,weatherlink.com 1.10,2013-03-22 05:50:00,
2013-03-22 02:05:00,42.4,40.0,29.97,SW,229,0.0,0.0,90,0.00,,,0.00,0,weatherlink.com 1.10,2013-03-22 06:05:00,
2013-03-22 02:20:00,41.6,39.0,29.96,SW,229,0.0,0.0,90,0.00,,,0.00,0,weatherlink.com 1.10,2013-03-22 06:20:00,
2013-03-22 02:35:00,40.9,39.0,29.96,SW,229,0.0,0.0,91,0.00,,,0.00,0,weatherlink.com 1.10,2013-03-22 06:35:00,
2013-03-22 02:50:00,40.2,38.0,29.96,SW,229,0.0,0.0,91,0.00,,,0.00,0,weatherlink.com 1.10,2013-03-22 06:50:00,
2013-03-22 03:05:00,39.6,37.0,29.96,SW,229,0.0,0.0,91,0.00,,,0.00,0,weatherlink.com 1.10,2013-03-22 07:05:00,
2013-03-22 03:35:00,40.7,39.0,29.94,South,173,0.0,1.0,93,0.00,,,0.00,0,weatherlink.com 1.10,2013-03-22 07:35:00,
2013-03-22 03:50:00,41.0,39.0,29.95,North,350,1.0,3.0,92,0.00,,,0.00,0,weatherlink.com 1.10,2013-03-22 07:50:00,
2013-03-22 04:05:00,43.5,41.0,29.93,NNE,28,1.0,2.0,91,0.00,,,0.00,0,weatherlink.com 1.10,2013-03-22 08:05:00,
2013-03-22 04:21:00,44.2,40.0,29.92,NE,34,0.0,1.0,86,0.00,,,0.00,0,weatherlink.com 1.10,2013-03-22 08:21:00,
2013-03-22 04:36:00,43.3,40.0,29.94,NNE,30,2.0,2.0,88,0.00,,,0.00,0,weatherlink.com 1.10,2013-03-22 08:36:00,
2013-03-22 04:51:00,44.0,40.0,29.95,NNW,344,0.0,2.0,87,0.00,,,0.00,0,weatherlink.com 1.10,2013-03-22 08:51:00,
2013-03-22 05:06:00,44.1,41.0,29.95,NNW,344,0.0,1.0,87,0.00,,,0.00,0,weatherlink.com 1.10,2013-03-22 09:06:00,
2013-03-22 05:21:00,43.9,40.0,29.96,NNW,344,0.0,2.0,86,0.00,,,0.00,0,weatherlink.com 1.10,2013-03-22 09:21:00,
2013-03-22 05:36:00,44.2,39.0,29.96,NE,40,1.0,3.0,83,0.00,,,0.00,0,weatherlink.com 1.10,2013-03-22 09:36:00,
2013-03-22 05:51:00,44.3,39.0,29.97,NE,38,1.0,1.0,83,0.00,,,0.00,0,weatherlink.com 1.10,2013-03-22 09:51:00,
2013-03-22 06:06:00,45.0,39.0,29.98,NNE,30,0.0,3.0,79,0.00,,,0.00,0,weatherlink.com 1.10,2013-03-22 10:06:00,
2013-03-22 06:36:00,46.3,38.0,29.99,NE,42,1.0,2.0,73,0.00,,,0.00,0,weatherlink.com 1.10,2013-03-22 10:36:00,
2013-03-22 06:51:00,46.7,37.0,30.00,NE,42,1.0,2.0,70,0.00,,,0.00,0,weatherlink.com 1.10,2013-03-22 10:51:00,
2013-03-22 07:06:00,46.8,37.0,30.00,NE,44,0.0,2.0,69,0.00,,,0.00,0,weatherlink.com 1.10,2013-03-22 11:06:00,
2013-03-22 07:21:00,46.6,37.0,30.02,NE,44,0.0,2.0,70,0.00,,,0.00,0,weatherlink.com 1.10,2013-03-22 11:21:00,
2013-03-22 07:36:00,46.5,38.0,30.03,NE,44,0.0,1.0,72,0.00,,,0.00,5,weatherlink.com 1.10,2013-03-22 11:36:00,
2013-03-22 07:52:00,46.3,38.0,30.04,NE,36,0.0,3.0,74,0.00,,,0.00,23,weatherlink.com 1.10,2013-03-22 11:52:00,
2013-03-22 08:07:00,46.7,38.0,30.03,NW,319,4.0,7.0,71,0.00,,,0.00,42,weatherlink.com 1.10,2013-03-22 12:07:00,
2013-03-22 08:22:00,47.1,38.0,30.03,NNE,18,3.0,7.0,70,0.00,,,0.00,58,weatherlink.com 1.10,2013-03-22 12:22:00,
2013-03-22 08:37:00,48.1,38.0,30.04,NE,51,5.0,9.0,69,0.00,,,0.00,93,weatherlink.com 1.10,2013-03-22 12:37:00,
2013-03-22 08:52:00,49.2,39.0,30.04,NNE,12,3.0,7.0,68,0.00,,,0.00,137,weatherlink.com 1.10,2013-03-22 12:52:00,
2013-03-22 09:07:00,50.9,40.0,30.05,NE,50,4.0,7.0,66,0.00,,,0.00,343,weatherlink.com 1.10,2013-03-22 13:07:00,
2013-03-22 09:22:00,51.5,40.0,30.04,North,350,4.0,10.0,65,0.00,,,0.00,100,weatherlink.com 1.10,2013-03-22 13:22:00,
2013-03-22 09:37:00,53.6,41.0,30.03,NE,55,2.0,8.0,63,0.00,,,0.00,431,weatherlink.com 1.10,2013-03-22 13:37:00,
2013-03-22 09:52:00,56.0,41.0,30.03,NE,56,9.0,12.0,58,0.00,,,0.00,410,weatherlink.com 1.10,2013-03-22 13:52:00,
2013-03-22 10:07:00,56.0,41.0,30.03,ENE,69,2.0,13.0,58,0.00,,,0.00,360,weatherlink.com 1.10,2013-03-22 14:07:00,
2013-03-22 10:24:00,57.8,42.0,30.05,ENE,57,2.0,8.0,56,0.00,,,0.00,265,weatherlink.com 1.10,2013-03-22 14:24:00,
2013-03-22 10:38:00,57.9,42.0,30.05,East,81,11.0,12.0,55,0.00,,,0.00,262,weatherlink.com 1.10,2013-03-22 14:38:00,
2013-03-22 10:54:00,58.3,41.0,30.05,East,90,7.0,9.0,54,0.00,,,0.00,230,weatherlink.com 1.10,2013-03-22 14:54:00,
2013-03-22 11:08:00,58.6,42.0,30.05,East,90,6.0,10.0,54,0.00,,,0.00,287,weatherlink.com 1.10,2013-03-22 15:08:00,
2013-03-22 11:24:00,59.3,42.0,30.05,NNW,339,7.0,13.0,53,0.00,,,0.00,336,weatherlink.com 1.10,2013-03-22 15:24:00,
2013-03-22 11:38:00,59.7,43.0,30.05,ENE,78,2.0,9.0,54,0.00,,,0.00,325,weatherlink.com 1.10,2013-03-22 15:38:00,
2013-03-22 11:54:00,61.0,44.0,30.04,ENE,71,7.0,11.0,54,0.00,,,0.00,517,weatherlink.com 1.10,2013-03-22 15:54:00,
2013-03-22 12:08:00,61.6,43.0,30.04,NE,55,5.0,10.0,51,0.00,,,0.00,473,weatherlink.com 1.10,2013-03-22 16:08:00,
2013-03-22 12:24:00,62.4,43.0,30.05,East,87,7.0,13.0,50,0.00,,,0.00,970,weatherlink.com 1.10,2013-03-22 16:24:00,
2013-03-22 12:38:00,63.5,43.0,30.04,East,97,0.0,12.0,48,0.00,,,0.00,475,weatherlink.com 1.10,2013-03-22 16:38:00,
2013-03-22 12:54:00,64.6,43.0,30.03,East,87,1.0,9.0,46,0.00,,,0.00,387,weatherlink.com 1.10,2013-03-22 16:54:00,
2013-03-22 13:08:00,63.7,43.0,30.03,ENE,61,5.0,9.0,47,0.00,,,0.00,279,weatherlink.com 1.10,2013-03-22 17:08:00,
2013-03-22 13:24:00,63.7,43.0,30.02,ENE,61,9.0,10.0,48,0.00,,,0.00,494,weatherlink.com 1.10,2013-03-22 17:24:00,
2013-03-22 13:39:00,64.3,43.0,30.02,SE,133,1.0,10.0,47,0.00,,,0.00,295,weatherlink.com 1.10,2013-03-22 17:39:00,
2013-03-22 14:09:00,66.2,43.0,30.00,East,80,2.0,13.0,44,0.00,,,0.00,954,weatherlink.com 1.10,2013-03-22 18:09:00,
2013-03-22 14:24:00,66.6,44.0,29.98,NNE,32,4.0,12.0,44,0.00,,,0.00,1055,weatherlink.com 1.10,2013-03-22 18:24:00,
2013-03-22 14:39:00,67.6,44.0,29.98,East,97,8.0,10.0,43,0.00,,,0.00,983,weatherlink.com 1.10,2013-03-22 18:39:00,
2013-03-22 14:54:00,67.7,45.0,29.97,NE,49,5.0,11.0,44,0.00,,,0.00,772,weatherlink.com 1.10,2013-03-22 18:54:00,
2013-03-22 15:09:00,67.0,45.0,29.96,East,86,1.0,10.0,45,0.00,,,0.00,401,weatherlink.com 1.10,2013-03-22 19:09:00,
2013-03-22 15:24:00,68.1,44.0,29.96,East,101,1.0,9.0,42,0.00,,,0.00,281,weatherlink.com 1.10,2013-03-22 19:24:00,
2013-03-22 15:39:00,67.6,45.0,29.95,ENE,69,4.0,14.0,44,0.00,,,0.00,244,weatherlink.com 1.10,2013-03-22 19:39:00,
2013-03-22 15:54:00,66.8,46.0,29.96,NE,40,1.0,10.0,48,0.00,,,0.00,213,weatherlink.com 1.10,2013-03-22 19:54:00,
2013-03-22 16:09:00,67.1,46.0,29.95,NNE,29,6.0,10.0,47,0.00,,,0.00,221,weatherlink.com 1.10,2013-03-22 20:09:00,
2013-03-22 16:24:00,67.4,46.0,29.95,ESE,107,2.0,9.0,47,0.00,,,0.00,309,weatherlink.com 1.10,2013-03-22 20:24:00,
2013-03-22 16:40:00,67.5,46.0,29.95,East,84,6.0,11.0,47,0.00,,,0.00,751,weatherlink.com 1.10,2013-03-22 20:40:00,
2013-03-22 16:55:00,68.0,46.0,29.95,ENE,64,3.0,11.0,46,0.00,,,0.00,218,weatherlink.com 1.10,2013-03-22 20:55:00,
2013-03-22 17:10:00,67.3,46.0,29.94,ESE,105,7.0,10.0,47,0.00,,,0.00,438,weatherlink.com 1.10,2013-03-22 21:10:00,
2013-03-22 17:25:00,68.0,47.0,29.94,East,92,2.0,9.0,47,0.00,,,0.00,585,weatherlink.com 1.10,2013-03-22 21:25:00,
2013-03-22 17:40:00,67.8,47.0,29.94,ENE,61,2.0,10.0,47,0.00,,,0.00,179,weatherlink.com 1.10,2013-03-22 21:40:00,
2013-03-22 17:55:00,67.3,48.0,29.95,East,83,6.0,9.0,50,0.00,,,0.00,151,weatherlink.com 1.10,2013-03-22 21:55:00,
2013-03-22 18:10:00,66.6,48.0,29.95,NNE,33,7.0,8.0,51,0.00,,,0.00,134,weatherlink.com 1.10,2013-03-22 22:10:00,
2013-03-22 18:25:00,65.0,47.0,29.95,East,80,6.0,14.0,52,0.00,,,0.00,104,weatherlink.com 1.10,2013-03-22 22:25:00,
2013-03-22 18:40:00,64.6,47.0,29.95,East,96,6.0,11.0,53,0.00,,,0.00,56,weatherlink.com 1.10,2013-03-22 22:40:00,
2013-03-22 18:55:00,63.6,46.0,29.96,East,90,3.0,12.0,54,0.00,,,0.00,62,weatherlink.com 1.10,2013-03-22 22:55:00,
2013-03-22 19:10:00,62.9,46.0,29.97,East,101,5.0,10.0,55,0.00,,,0.00,42,weatherlink.com 1.10,2013-03-22 23:10:00,
2013-03-22 19:25:00,61.8,46.0,29.98,NNE,19,3.0,9.0,57,0.00,,,0.00,18,weatherlink.com 1.10,2013-03-22 23:25:00,
2013-03-22 19:40:00,61.1,46.0,29.98,ENE,78,2.0,8.0,58,0.00,,,0.00,5,weatherlink.com 1.10,2013-03-22 23:40:00,
2013-03-22 19:55:00,60.4,46.0,29.98,NE,53,6.0,9.0,60,0.00,,,0.00,0,weatherlink.com 1.10,2013-03-22 23:55:00,
2013-03-22 20:10:00,59.6,46.0,29.99,ENE,75,1.0,7.0,61,0.00,,,0.00,0,weatherlink.com 1.10,2013-03-23 00:10:00,
2013-03-22 20:25:00,59.0,46.0,30.00,ENE,57,3.0,7.0,63,0.00,,,0.00,0,weatherlink.com 1.10,2013-03-23 00:25:00,
2013-03-22 20:40:00,58.7,46.0,30.01,NNE,31,2.0,8.0,64,0.00,,,0.00,0,weatherlink.com 1.10,2013-03-23 00:40:00,
2013-03-22 20:55:00,58.2,46.0,30.01,East,101,1.0,6.0,65,0.00,,,0.00,0,weatherlink.com 1.10,2013-03-23 00:55:00,
2013-03-22 21:11:00,57.6,46.0,30.01,East,80,2.0,4.0,66,0.00,,,0.00,0,weatherlink.com 1.10,2013-03-23 01:11:00,
2013-03-22 21:25:00,57.1,46.0,30.01,NE,53,2.0,5.0,66,0.00,,,0.00,0,weatherlink.com 1.10,2013-03-23 01:25:00,
2013-03-22 21:56:00,57.0,46.0,30.00,ENE,76,2.0,7.0,67,0.00,,,0.00,0,weatherlink.com 1.10,2013-03-23 01:56:00,
2013-03-22 22:11:00,56.7,46.0,30.01,ENE,73,1.0,6.0,68,0.00,,,0.00,0,weatherlink.com 1.10,2013-03-23 02:11:00,
2013-03-22 22:26:00,56.3,46.0,30.02,NE,41,0.0,4.0,69,0.00,,,0.00,0,weatherlink.com 1.10,2013-03-23 02:26:00,
2013-03-22 22:41:00,55.9,46.0,30.02,NE,38,3.0,5.0,70,0.00,,,0.00,0,weatherlink.com 1.10,2013-03-23 02:41:00,
2013-03-22 22:56:00,55.6,46.0,30.01,NE,46,2.0,7.0,71,0.00,,,0.00,0,weatherlink.com 1.10,2013-03-23 02:56:00,
2013-03-22 23:11:00,55.3,47.0,30.01,ENE,61,2.0,5.0,73,0.00,,,0.00,0,weatherlink.com 1.10,2013-03-23 03:11:00,
2013-03-22 23:41:00,54.4,47.0,30.01,ENE,74,1.0,3.0,75,0.00,,,0.00,0,weatherlink.com 1.10,2013-03-23 03:41:00,
2013-03-22 23:56:00,53.9,47.0,30.00,East,94,1.0,2.0,76,0.00,,,0.00,0,weatherlink.com 1.10,2013-03-23 03:56:00,